createdAt,value
2023-04-15T00:00:18.917Z,99197.19
2023-04-15T00:01:22.914Z,99199.69
2023-04-15T00:02:25.591Z,99198.03
2023-04-15T00:03:28.977Z,99192.81
2023-04-15T00:04:34.064Z,99200.75
2023-04-15T00:05:36.682Z,99202.66
2023-04-15T00:06:39.973Z,99199.91
2023-04-15T00:07:42.223Z,99193.88
2023-04-15T00:08:44.502Z,99195.53
2023-04-15T00:09:46.810Z,99199.91
2023-04-15T00:10:49.537Z,99199.09
2023-04-15T00:11:51.745Z,99194.44
2023-04-15T00:12:54.261Z,99192.53
2023-04-15T00:13:56.582Z,99193.63
2023-04-15T00:14:59.205Z,99193.63
2023-04-15T00:16:02.493Z,99200.75
2023-04-15T00:17:05.255Z,99194.44
2023-04-15T00:18:08.365Z,99193.63
2023-04-15T00:19:10.669Z,99192.81
2023-04-15T00:20:13.136Z,99193.63
2023-04-15T00:21:16.850Z,99198.28
2023-04-15T00:22:19.123Z,99190.88
2023-04-15T00:23:21.435Z,99184.56
2023-04-15T00:24:24.247Z,99184.56
2023-04-15T00:25:26.709Z,99193.63
2023-04-15T00:26:29.023Z,99181.81
2023-04-15T00:27:31.916Z,99182.63
2023-04-15T00:28:34.355Z,99185.38
2023-04-15T00:29:36.690Z,99180.97
2023-04-15T00:30:39.246Z,99193.63
2023-04-15T00:31:42.460Z,99186.47
2023-04-15T00:32:44.926Z,99186.47
2023-04-15T00:33:47.626Z,99189.22
2023-04-15T00:34:50.359Z,99190.06
2023-04-15T00:35:52.628Z,99190.06
2023-04-15T00:36:54.931Z,99185.38
2023-04-15T00:37:57.183Z,99181.81
2023-04-15T00:38:59.792Z,99180.97
2023-04-15T00:40:02.971Z,99171.91
2023-04-15T00:41:05.655Z,99172.72
2023-04-15T00:42:08.070Z,99177.13
2023-04-15T00:43:10.426Z,99180.97
2023-04-15T00:44:12.895Z,99174.38
2023-04-15T00:45:15.835Z,99176.31
2023-04-15T00:46:20.845Z,99178.22
2023-04-15T00:47:23.637Z,99169.69
2023-04-15T00:48:27.539Z,99175.19
2023-04-15T00:49:30.051Z,99179.06
2023-04-15T00:50:33.312Z,99175.47
2023-04-15T00:51:37.312Z,99175.19
2023-04-15T00:52:40.982Z,99184.00
2023-04-15T00:53:43.901Z,99177.94
2023-04-15T00:54:46.573Z,99173.56
2023-04-15T00:55:49.377Z,99179.88
2023-04-15T00:56:51.867Z,99179.06
2023-04-15T00:57:54.916Z,99177.13
2023-04-15T00:58:59.323Z,99168.88
2023-04-15T01:00:02.759Z,99171.63
2023-04-15T01:01:05.443Z,99168.88
2023-04-15T01:02:08.557Z,99169.16
2023-04-15T01:03:11.805Z,99169.16
2023-04-15T01:04:14.336Z,99167.22
2023-04-15T01:05:18.804Z,99175.47
2023-04-15T01:06:22.578Z,99172.72
2023-04-15T01:07:24.961Z,99174.66
2023-04-15T01:08:31.338Z,99173.00
2023-04-15T01:09:34.290Z,99167.50
2023-04-15T01:10:37.059Z,99164.47
2023-04-15T01:11:40.100Z,99168.31
2023-04-15T01:12:44.863Z,99168.31
2023-04-15T01:13:48.628Z,99168.31
2023-04-15T01:14:51.605Z,99168.31
2023-04-15T01:15:54.261Z,99163.94
2023-04-15T01:16:56.749Z,99164.75
2023-04-15T01:17:59.716Z,99165.56
2023-04-15T01:19:02.369Z,99159.25
2023-04-15T01:20:05.885Z,99159.25
2023-04-15T01:21:08.374Z,99156.53
2023-04-15T01:22:11.003Z,99153.50
2023-04-15T01:23:14.412Z,99148.84
2023-04-15T01:24:18.790Z,99146.34
2023-04-15T01:25:33.167Z,99145.25
2023-04-15T01:26:38.075Z,99151.03
2023-04-15T01:27:42.809Z,99146.34
2023-04-15T01:28:45.535Z,99143.59
2023-04-15T01:29:48.426Z,99141.13
2023-04-15T01:30:50.654Z,99146.09
2023-04-15T01:31:55.224Z,99150.75
2023-04-15T01:32:57.692Z,99151.59
2023-04-15T01:34:00.205Z,99148.00
2023-04-15T01:35:03.077Z,99147.19
2023-04-15T01:36:07.344Z,99153.50
2023-04-15T01:37:09.598Z,99148.00
2023-04-15T01:38:12.671Z,99141.69
2023-04-15T01:39:15.571Z,99148.28
2023-04-15T01:40:17.885Z,99150.75
2023-04-15T01:41:29.242Z,99145.25
2023-04-15T01:42:32.863Z,99151.84
2023-04-15T01:43:39.103Z,99148.28
2023-04-15T01:44:41.504Z,99149.09
2023-04-15T01:45:47.443Z,99146.34
2023-04-15T01:46:49.822Z,99145.53
2023-04-15T01:47:52.174Z,99141.97
2023-04-15T01:48:54.543Z,99143.88
2023-04-15T01:49:57.088Z,99147.69
2023-04-15T01:51:00.833Z,99141.13
2023-04-15T01:52:03.201Z,99151.03
2023-04-15T01:53:05.529Z,99147.47
2023-04-15T01:54:08.536Z,99144.72
2023-04-15T01:55:11.797Z,99141.13
2023-04-15T01:56:15.876Z,99139.22
2023-04-15T01:57:19.410Z,99138.94
2023-04-15T01:58:23.754Z,99141.69
2023-04-15T01:59:26.761Z,99146.34
2023-04-15T02:00:32.797Z,99140.84
2023-04-15T02:01:37.162Z,99133.44
2023-04-15T02:02:39.709Z,99143.59
2023-04-15T02:03:43.750Z,99136.47
2023-04-15T02:04:46.114Z,99139.22
2023-04-15T02:05:48.417Z,99131.78
2023-04-15T02:06:50.677Z,99129.06
2023-04-15T02:07:53.926Z,99130.97
2023-04-15T02:08:56.176Z,99130.97
2023-04-15T02:09:58.753Z,99124.66
2023-04-15T02:11:01.548Z,99129.06
2023-04-15T02:12:04.481Z,99121.63
2023-04-15T02:13:06.881Z,99129.31
2023-04-15T02:14:09.805Z,99118.06
2023-04-15T02:15:12.102Z,99121.63
2023-04-15T02:16:21.568Z,99124.38
2023-04-15T02:17:23.868Z,99124.66
2023-04-15T02:18:26.643Z,99121.91
2023-04-15T02:19:29.154Z,99113.66
2023-04-15T02:20:32.548Z,99119.16
2023-04-15T02:21:35.688Z,99120.00
2023-04-15T02:22:38.496Z,99121.09
2023-04-15T02:23:40.834Z,99115.59
2023-04-15T02:24:43.379Z,99120.00
2023-04-15T02:25:53.372Z,99124.66
2023-04-15T02:26:56.985Z,99117.25
2023-04-15T02:27:59.374Z,99116.41
2023-04-15T02:29:02.656Z,99117.25
2023-04-15T02:30:05.709Z,99119.16
2023-04-15T02:31:10.308Z,99121.09
2023-04-15T02:32:13.772Z,99116.13
2023-04-15T02:33:16.714Z,99114.50
2023-04-15T02:34:19.073Z,99120.25
2023-04-15T02:35:21.418Z,99118.34
2023-04-15T02:36:24.198Z,99112.84
2023-04-15T02:37:28.825Z,99115.59
2023-04-15T02:38:32.273Z,99113.13
2023-04-15T02:39:34.767Z,99108.44
2023-04-15T02:40:37.585Z,99118.34
2023-04-15T02:41:40.597Z,99115.59
2023-04-15T02:42:44.467Z,99121.09
2023-04-15T02:43:49.105Z,99109.25
2023-04-15T02:44:51.554Z,99120.25
2023-04-15T02:45:56.089Z,99110.91
2023-04-15T02:46:59.108Z,99116.41
2023-04-15T02:48:06.546Z,99115.59
2023-04-15T02:49:08.958Z,99111.75
2023-04-15T02:50:13.369Z,99117.25
2023-04-15T02:51:20.129Z,99115.31
2023-04-15T02:52:22.590Z,99110.91
2023-04-15T02:53:26.323Z,99113.66
2023-04-15T02:54:29.030Z,99103.50
2023-04-15T02:55:32.219Z,99110.91
2023-04-15T02:56:34.551Z,99113.66
2023-04-15T02:57:37.646Z,99122.75
2023-04-15T02:58:43.437Z,99117.25
2023-04-15T02:59:45.679Z,99113.66
2023-04-15T03:00:48.066Z,99114.50
2023-04-15T03:01:50.401Z,99120.81
2023-04-15T03:02:57.764Z,99122.75
2023-04-15T03:04:00.148Z,99122.75
2023-04-15T03:05:02.961Z,99112.56
2023-04-15T03:06:05.534Z,99113.38
2023-04-15T03:07:08.098Z,99110.63
2023-04-15T03:08:10.921Z,99109.81
2023-04-15T03:09:13.208Z,99113.38
2023-04-15T03:10:15.785Z,99105.41
2023-04-15T03:11:18.954Z,99112.56
2023-04-15T03:12:21.273Z,99109.00
2023-04-15T03:13:24.767Z,99106.25
2023-04-15T03:14:27.474Z,99107.06
2023-04-15T03:15:30.264Z,99108.16
2023-04-15T03:16:32.510Z,99106.25
2023-04-15T03:17:34.885Z,99109.00
2023-04-15T03:18:38.017Z,99105.41
2023-04-15T03:19:40.620Z,99099.94
2023-04-15T03:20:43.313Z,99103.50
2023-04-15T03:21:46.055Z,99107.34
2023-04-15T03:22:49.381Z,99104.59
2023-04-15T03:23:51.896Z,99100.78
2023-04-15T03:24:54.177Z,99099.09
2023-04-15T03:25:58.197Z,99097.44
2023-04-15T03:27:02.233Z,99099.09
2023-04-15T03:28:04.993Z,99102.66
2023-04-15T03:29:08.464Z,99095.50
2023-04-15T03:30:11.460Z,99104.34
2023-04-15T03:31:14.507Z,99101.84
2023-04-15T03:32:16.956Z,99095.28
2023-04-15T03:33:19.240Z,99103.50
2023-04-15T03:34:21.910Z,99102.66
2023-04-15T03:35:24.293Z,99110.09
2023-04-15T03:36:27.619Z,99110.91
2023-04-15T03:37:29.861Z,99108.16
2023-04-15T03:38:32.116Z,99099.09
2023-04-15T03:39:35.068Z,99099.94
2023-04-15T03:40:37.361Z,99101.84
2023-04-15T03:41:39.681Z,99095.50
2023-04-15T03:42:43.071Z,99101.00
2023-04-15T03:43:45.382Z,99094.72
2023-04-15T03:44:47.694Z,99102.94
2023-04-15T03:45:50.029Z,99090.03
2023-04-15T03:46:52.425Z,99098.25
2023-04-15T03:47:55.871Z,99100.19
2023-04-15T03:48:58.142Z,99099.38
2023-04-15T03:50:00.634Z,99104.88
2023-04-15T03:51:02.927Z,99098.53
2023-04-15T03:52:05.819Z,99096.38
2023-04-15T03:53:08.096Z,99094.72
2023-04-15T03:54:10.386Z,99097.19
2023-04-15T03:55:12.682Z,99087.28
2023-04-15T03:56:14.961Z,99099.09
2023-04-15T03:57:17.200Z,99099.09
2023-04-15T03:58:19.512Z,99091.97
2023-04-15T03:59:21.783Z,99091.69
2023-04-15T04:00:24.064Z,99090.88
2023-04-15T04:01:26.446Z,99082.63
2023-04-15T04:02:28.873Z,99077.94
2023-04-15T04:03:31.405Z,99081.78
2023-04-15T04:04:34.526Z,99078.78
2023-04-15T04:05:39.158Z,99077.94
2023-04-15T04:06:41.677Z,99079.88
2023-04-15T04:07:44.046Z,99082.63
2023-04-15T04:08:48.416Z,99083.44
2023-04-15T04:09:50.834Z,99081.53
2023-04-15T04:10:53.132Z,99074.13
2023-04-15T04:11:56.414Z,99076.06
2023-04-15T04:12:58.697Z,99075.19
2023-04-15T04:14:00.988Z,99072.47
2023-04-15T04:15:03.674Z,99075.19
2023-04-15T04:16:07.325Z,99078.78
2023-04-15T04:17:09.818Z,99077.69
2023-04-15T04:18:12.682Z,99077.69
2023-04-15T04:19:15.231Z,99078.78
2023-04-15T04:20:17.535Z,99082.34
2023-04-15T04:21:20.213Z,99082.91
2023-04-15T04:22:24.386Z,99089.50
2023-04-15T04:23:27.180Z,99082.09
2023-04-15T04:24:29.534Z,99093.06
2023-04-15T04:25:32.381Z,99087.56
2023-04-15T04:26:34.723Z,99099.41
2023-04-15T04:27:37.153Z,99095.53
2023-04-15T04:28:40.770Z,99101.03
2023-04-15T04:29:43.493Z,99096.38
2023-04-15T04:30:45.847Z,99095.81
2023-04-15T04:31:48.911Z,99098.56
2023-04-15T04:32:51.876Z,99094.72
2023-04-15T04:33:54.182Z,99100.22
2023-04-15T04:34:56.722Z,99095.81
2023-04-15T04:35:59.148Z,99093.63
2023-04-15T04:37:01.563Z,99090.03
2023-04-15T04:38:04.468Z,99079.34
2023-04-15T04:39:06.682Z,99077.16
2023-04-15T04:40:09.792Z,99085.13
2023-04-15T04:41:12.189Z,99077.16
2023-04-15T04:42:14.496Z,99079.06
2023-04-15T04:43:16.932Z,99079.91
2023-04-15T04:44:19.192Z,99088.94
2023-04-15T04:45:21.809Z,99087.88
2023-04-15T04:46:24.145Z,99081.56
2023-04-15T04:47:26.586Z,99095.84
2023-04-15T04:48:31.209Z,99091.19
2023-04-15T04:49:33.849Z,99088.44
2023-04-15T04:50:38.093Z,99085.69
2023-04-15T04:51:40.473Z,99092.00
2023-04-15T04:52:42.779Z,99089.53
2023-04-15T04:53:45.099Z,99083.75
2023-04-15T04:54:47.904Z,99093.94
2023-04-15T04:55:50.267Z,99086.50
2023-04-15T04:56:52.530Z,99091.19
2023-04-15T04:57:54.795Z,99088.16
2023-04-15T04:58:57.055Z,99093.66
2023-04-15T04:59:59.353Z,99088.16
2023-04-15T05:01:01.775Z,99090.91
2023-04-15T05:02:04.274Z,99088.97
2023-04-15T05:03:07.351Z,99088.97
2023-04-15T05:04:10.007Z,99092.81
2023-04-15T05:05:13.487Z,99094.47
2023-04-15T05:06:15.882Z,99089.81
2023-04-15T05:07:18.202Z,99095.31
2023-04-15T05:08:20.907Z,99093.38
2023-04-15T05:09:23.207Z,99098.06
2023-04-15T05:10:25.791Z,99093.66
2023-04-15T05:11:28.564Z,99088.97
2023-04-15T05:12:30.871Z,99097.22
2023-04-15T05:13:33.288Z,99090.91
2023-04-15T05:14:35.566Z,99099.16
2023-04-15T05:15:40.009Z,99100.81
2023-04-15T05:16:42.516Z,99099.16
2023-04-15T05:17:44.943Z,99096.41
2023-04-15T05:18:47.550Z,99093.66
2023-04-15T05:19:49.786Z,99097.22
2023-04-15T05:20:52.104Z,99098.88
2023-04-15T05:21:54.447Z,99100.81
2023-04-15T05:22:56.716Z,99096.41
2023-04-15T05:23:59.066Z,99103.56
2023-04-15T05:25:01.450Z,99094.47
2023-04-15T05:26:03.964Z,99098.06
2023-04-15T05:27:06.266Z,99096.94
2023-04-15T05:28:08.816Z,99096.94
2023-04-15T05:29:11.132Z,99100.53
2023-04-15T05:30:13.804Z,99096.13
2023-04-15T05:31:16.874Z,99097.78
2023-04-15T05:32:19.297Z,99103.28
2023-04-15T05:33:21.856Z,99103.28
2023-04-15T05:34:24.204Z,99105.75
2023-04-15T05:35:26.522Z,99102.16
2023-04-15T05:36:29.015Z,99109.59
2023-04-15T05:37:31.481Z,99100.25
2023-04-15T05:38:33.768Z,99107.41
2023-04-15T05:39:36.421Z,99108.50
2023-04-15T05:40:41.947Z,99115.66
2023-04-15T05:41:44.940Z,99112.91
2023-04-15T05:42:47.197Z,99116.47
2023-04-15T05:43:49.555Z,99113.72
2023-04-15T05:44:52.176Z,99115.38
2023-04-15T05:45:54.530Z,99110.16
2023-04-15T05:46:57.104Z,99109.03
2023-04-15T05:47:59.459Z,99106.03
2023-04-15T05:49:02.731Z,99107.13
2023-04-15T05:50:05.612Z,99107.13
2023-04-15T05:51:08.152Z,99110.69
2023-04-15T05:52:10.556Z,99106.03
2023-04-15T05:53:13.059Z,99111.53
2023-04-15T05:54:15.475Z,99112.34
2023-04-15T05:55:17.774Z,99121.41
2023-04-15T05:56:20.897Z,99123.34
2023-04-15T05:57:23.360Z,99130.50
2023-04-15T05:58:25.599Z,99127.75
2023-04-15T05:59:28.652Z,99129.66
2023-04-15T06:00:31.417Z,99130.50
2023-04-15T06:01:34.511Z,99140.41
2023-04-15T06:02:37.411Z,99138.19
2023-04-15T06:03:39.987Z,99135.72
2023-04-15T06:04:42.882Z,99136.53
2023-04-15T06:05:45.776Z,99136.53
2023-04-15T06:06:48.364Z,99138.47
2023-04-15T06:07:50.773Z,99136.53
2023-04-15T06:08:53.507Z,99136.28
2023-04-15T06:09:56.047Z,99135.44
2023-04-15T06:10:59.122Z,99132.41
2023-04-15T06:12:02.610Z,99136.00
2023-04-15T06:13:04.933Z,99129.66
2023-04-15T06:14:07.304Z,99131.31
2023-04-15T06:15:12.736Z,99128.56
2023-04-15T06:16:15.151Z,99135.72
2023-04-15T06:17:18.788Z,99141.22
2023-04-15T06:18:21.093Z,99135.72
2023-04-15T06:19:23.396Z,99137.38
2023-04-15T06:20:25.824Z,99141.81
2023-04-15T06:21:28.288Z,99146.16
2023-04-15T06:22:31.169Z,99139.88
2023-04-15T06:23:36.822Z,99145.94
2023-04-15T06:24:39.249Z,99144.81
2023-04-15T06:25:41.802Z,99150.31
2023-04-15T06:26:44.075Z,99150.31
2023-04-15T06:27:46.631Z,99148.13
2023-04-15T06:28:49.018Z,99150.06
2023-04-15T06:29:51.294Z,99152.53
2023-04-15T06:30:54.260Z,99154.44
2023-04-15T06:31:57.044Z,99150.59
2023-04-15T06:32:59.437Z,99159.41
2023-04-15T06:34:01.888Z,99151.16
2023-04-15T06:35:04.567Z,99159.13
2023-04-15T06:36:06.995Z,99161.03
2023-04-15T06:37:11.301Z,99156.38
2023-04-15T06:38:14.579Z,99162.41
2023-04-15T06:39:18.041Z,99161.59
2023-04-15T06:40:20.368Z,99159.44
2023-04-15T06:41:22.836Z,99164.91
2023-04-15T06:42:25.144Z,99163.00
2023-04-15T06:43:27.369Z,99164.66
2023-04-15T06:44:31.217Z,99163.81
2023-04-15T06:45:35.149Z,99161.63
2023-04-15T06:46:37.386Z,99163.56
2023-04-15T06:47:39.718Z,99155.31
2023-04-15T06:48:41.942Z,99154.19
2023-04-15T06:49:45.098Z,99169.59
2023-04-15T06:50:47.716Z,99164.94
2023-04-15T06:51:51.526Z,99156.69
2023-04-15T06:52:58.158Z,99167.41
2023-04-15T06:54:00.426Z,99165.47
2023-04-15T06:55:02.956Z,99160.81
2023-04-15T06:56:05.852Z,99160.56
2023-04-15T06:57:09.469Z,99161.34
2023-04-15T06:58:11.719Z,99165.78
2023-04-15T06:59:14.503Z,99161.94
2023-04-15T07:00:17.781Z,99171.84
2023-04-15T07:01:20.309Z,99174.31
2023-04-15T07:02:22.971Z,99177.88
2023-04-15T07:03:25.374Z,99174.03
2023-04-15T07:04:28.218Z,99174.03
2023-04-15T07:05:31.260Z,99182.81
2023-04-15T07:06:34.039Z,99181.72
2023-04-15T07:07:37.203Z,99188.88
2023-04-15T07:08:39.466Z,99179.53
2023-04-15T07:09:41.982Z,99183.69
2023-04-15T07:10:44.267Z,99186.41
2023-04-15T07:11:46.526Z,99181.75
2023-04-15T07:12:49.418Z,99185.34
2023-04-15T07:13:51.766Z,99182.31
2023-04-15T07:14:54.040Z,99183.69
2023-04-15T07:15:56.347Z,99189.19
2023-04-15T07:16:58.640Z,99192.47
2023-04-15T07:21:43.352Z,99192.47
2023-04-15T07:22:45.556Z,99196.06
2023-04-15T07:23:47.936Z,99198.56
2023-04-15T07:24:50.265Z,99197.47
2023-04-15T07:25:52.703Z,99198.28
2023-04-15T07:26:59.478Z,99196.34
2023-04-15T07:28:03.129Z,99207.09
2023-04-15T07:29:05.354Z,99208.72
2023-04-15T07:30:08.248Z,99191.97
2023-04-15T07:31:10.869Z,99203.78
2023-04-15T07:32:13.314Z,99207.91
2023-04-15T07:33:15.881Z,99195.81
2023-04-15T07:34:20.121Z,99198.28
2023-04-15T07:35:23.565Z,99198.84
2023-04-15T07:36:25.996Z,99192.22
2023-04-15T07:37:28.612Z,99199.41
2023-04-15T07:38:30.895Z,99197.22
2023-04-15T07:39:34.149Z,99201.63
2023-04-15T07:40:36.439Z,99200.50
2023-04-15T07:41:38.869Z,99205.75
2023-04-15T07:42:41.460Z,99199.97
2023-04-15T07:43:45.488Z,99201.59
2023-04-15T07:44:47.896Z,99212.06
2023-04-15T07:45:52.261Z,99208.47
2023-04-15T07:46:54.667Z,99210.97
2023-04-15T07:49:25.670Z,99210.41
2023-04-15T07:50:35.547Z,99209.03
2023-04-15T07:53:09.821Z,99207.09
2023-04-15T07:54:12.068Z,99213.47
2023-04-15T07:55:14.579Z,99213.19
2023-04-15T07:56:16.995Z,99216.50
2023-04-15T07:57:19.644Z,99218.13
2023-04-15T07:58:22.084Z,99212.63
2023-04-15T07:59:24.414Z,99212.63
2023-04-15T08:00:27.148Z,99222.53
2023-04-15T08:01:29.391Z,99220.34
2023-04-15T08:02:32.105Z,99227.50
2023-04-15T08:03:34.862Z,99220.06
2023-04-15T08:04:37.930Z,99222.53
2023-04-15T08:05:40.446Z,99223.63
2023-04-15T08:06:42.736Z,99220.59
2023-04-15T08:07:45.334Z,99223.09
2023-04-15T08:08:48.844Z,99226.66
2023-04-15T08:09:51.716Z,99228.31
2023-04-15T08:10:53.978Z,99229.97
2023-04-15T08:11:57.237Z,99230.53
2023-04-15T08:13:00.100Z,99234.13
2023-04-15T08:14:02.480Z,99229.41
2023-04-15T08:15:05.123Z,99231.09
2023-04-15T08:16:19.853Z,99241.81
2023-04-15T08:17:22.422Z,99238.50
2023-04-15T08:18:24.742Z,99230.25
2023-04-15T08:19:27.138Z,99242.09
2023-04-15T08:20:30.110Z,99234.38
2023-04-15T08:21:32.680Z,99242.38
2023-04-15T08:22:34.954Z,99244.00
2023-04-15T08:23:37.429Z,99244.00
2023-04-15T08:24:40.410Z,99251.72
2023-04-15T08:25:42.876Z,99250.59
2023-04-15T08:26:45.165Z,99245.69
2023-04-15T08:27:47.669Z,99250.09
2023-04-15T08:28:50.224Z,99246.25
2023-04-15T08:29:52.557Z,99246.50
2023-04-15T08:30:54.838Z,99254.78
2023-04-15T08:31:57.097Z,99251.78
2023-04-15T08:32:59.548Z,99246.78
2023-04-15T08:34:02.291Z,99248.44
2023-04-15T08:35:04.919Z,99247.06
2023-04-15T08:36:07.971Z,99248.44
2023-04-15T08:37:11.486Z,99249.00
2023-04-15T08:38:16.262Z,99250.38
2023-04-15T08:39:18.944Z,99251.72
2023-04-15T08:40:25.137Z,99260.56
2023-04-15T08:41:32.264Z,99252.00
2023-04-15T08:42:42.908Z,99257.78
2023-04-15T08:43:59.179Z,99261.94
2023-04-15T08:45:05.043Z,99260.53
2023-04-15T08:46:09.542Z,99261.09
2023-04-15T08:47:14.566Z,99262.47
2023-04-15T08:48:17.491Z,99258.59
2023-04-15T08:49:22.402Z,99263.56
2023-04-15T08:50:26.517Z,99262.19
2023-04-15T08:51:29.239Z,99274.84
2023-04-15T08:52:31.823Z,99265.47
2023-04-15T08:53:34.422Z,99272.66
2023-04-15T08:54:37.778Z,99274.84
2023-04-15T08:55:46.080Z,99269.06
2023-04-15T08:56:49.036Z,99274.28
2023-04-15T08:57:51.594Z,99262.19
2023-04-15T08:58:54.053Z,99270.16
2023-04-15T08:59:57.557Z,99272.63
2023-04-15T09:00:59.913Z,99271.53
2023-04-15T09:02:03.996Z,99272.91
2023-04-15T09:03:09.650Z,99272.63
2023-04-15T09:04:12.788Z,99276.19
2023-04-15T09:05:15.286Z,99276.75
2023-04-15T09:06:18.306Z,99267.38
2023-04-15T09:07:20.831Z,99267.09
2023-04-15T09:08:23.090Z,99267.63
2023-04-15T09:09:25.502Z,99267.38
2023-04-15T09:10:29.729Z,99270.94
2023-04-15T09:11:32.314Z,99272.31
2023-04-15T09:12:36.544Z,99271.22
2023-04-15T09:13:39.132Z,99278.09
2023-04-15T09:14:42.498Z,99275.88
2023-04-15T09:15:45.225Z,99281.94
2023-04-15T09:17:13.746Z,99282.50
2023-04-15T09:18:29.469Z,99282.72
2023-04-15T09:19:33.827Z,99282.44
2023-04-15T09:20:41.817Z,99290.47
2023-04-15T09:21:47.813Z,99286.31
2023-04-15T09:22:51.307Z,99290.44
2023-04-15T09:24:03.151Z,99291.53
2023-04-15T09:25:33.439Z,99287.69
2023-04-15T09:26:40.434Z,99289.03
2023-04-15T09:27:53.949Z,99293.19
2023-04-15T09:29:04.096Z,99286.28
2023-04-15T09:30:09.142Z,99289.25
2023-04-15T09:31:11.504Z,99290.09
2023-04-15T09:32:15.210Z,99285.97
2023-04-15T09:33:17.570Z,99288.97
2023-04-15T09:34:20.189Z,99295.03
2023-04-15T09:35:23.918Z,99303.56
2023-04-15T09:36:29.861Z,99298.59
2023-04-15T09:37:36.830Z,99303.25
2023-04-15T09:38:55.931Z,99302.69
2023-04-15T09:39:58.234Z,99299.41
2023-04-15T09:41:00.547Z,99303.53
2023-04-15T09:42:07.377Z,99295.50
2023-04-15T09:43:13.195Z,99288.59
2023-04-15T09:44:27.704Z,99295.22
2023-04-15T09:45:30.254Z,99298.50
2023-04-15T09:46:45.673Z,99305.94
2023-04-15T09:47:48.213Z,99310.06
2023-04-15T09:49:08.951Z,99315.81
2023-04-15T09:50:11.288Z,99315.25
2023-04-15T09:51:15.764Z,99314.97
2023-04-15T09:52:18.088Z,99314.38
2023-04-15T09:53:21.970Z,99318.50
2023-04-15T09:54:24.236Z,99321.00
2023-04-15T09:55:26.843Z,99327.34
2023-04-15T09:56:37.987Z,99333.41
2023-04-15T09:57:45.342Z,99329.81
2023-04-15T09:58:57.248Z,99333.41
2023-04-15T09:59:59.789Z,99331.75
2023-04-15T10:01:06.059Z,99339.22
2023-04-15T10:02:08.429Z,99328.44
2023-04-15T10:03:11.888Z,99340.91
2023-04-15T10:04:16.192Z,99336.75
2023-04-15T10:05:18.786Z,99337.06
2023-04-15T10:06:23.540Z,99339.56
2023-04-15T10:07:26.447Z,99337.09
2023-04-15T10:08:30.370Z,99336.81
2023-04-15T10:09:34.350Z,99344.03
2023-04-15T10:10:37.308Z,99336.31
2023-04-15T10:11:40.268Z,99339.91
2023-04-15T10:12:43.991Z,99339.41
2023-04-15T10:13:49.341Z,99341.59
2023-04-15T10:14:59.697Z,99345.19
2023-04-15T10:16:12.295Z,99351.53
2023-04-15T10:17:20.140Z,99348.50
2023-04-15T10:18:25.576Z,99351.84
2023-04-15T10:19:29.668Z,99349.09
2023-04-15T10:20:32.072Z,99348.25
2023-04-15T10:21:34.642Z,99350.78
2023-04-15T10:22:38.091Z,99356.03
2023-04-15T10:23:41.112Z,99354.66
2023-04-15T10:24:45.767Z,99350.81
2023-04-15T10:25:51.695Z,99357.16
2023-04-15T10:26:54.658Z,99363.25
2023-04-15T10:27:57.996Z,99364.63
2023-04-15T10:29:01.488Z,99356.09
2023-04-15T10:30:04.094Z,99363.25
2023-04-15T10:31:07.421Z,99362.97
2023-04-15T10:32:11.172Z,99367.97
2023-04-15T10:33:14.680Z,99364.09
2023-04-15T10:34:18.630Z,99362.19
2023-04-15T10:35:22.507Z,99367.44
2023-04-15T10:36:25.222Z,99369.38
2023-04-15T10:37:39.003Z,99362.47
2023-04-15T10:38:43.494Z,99369.66
2023-04-15T10:39:45.911Z,99365.53
2023-04-15T10:40:50.408Z,99362.75
2023-04-15T10:42:19.479Z,99362.78
2023-04-15T10:43:28.733Z,99365.25
2023-04-15T10:44:32.336Z,99364.41
2023-04-15T10:45:37.373Z,99363.03
2023-04-15T10:46:46.016Z,99365.25
2023-04-15T10:47:53.648Z,99362.78
2023-04-15T10:48:56.528Z,99358.34
2023-04-15T10:50:01.157Z,99365.25
2023-04-15T10:51:04.006Z,99361.09
2023-04-15T10:52:08.800Z,99364.69
2023-04-15T10:53:12.114Z,99366.91
2023-04-15T10:54:33.820Z,99368.81
2023-04-15T10:55:36.203Z,99364.66
2023-04-15T10:56:38.865Z,99365.81
2023-04-15T10:57:42.522Z,99370.75
2023-04-15T10:58:45.777Z,99360.81
2023-04-15T11:00:18.018Z,99371.03
2023-04-15T11:01:23.725Z,99371.31
2023-04-15T11:02:48.783Z,99371.56
2023-04-15T11:03:51.993Z,99375.97
2023-04-15T11:04:56.622Z,99378.72
2023-04-15T11:05:59.037Z,99380.94
2023-04-15T11:07:07.714Z,99375.97
2023-04-15T11:08:11.123Z,99381.19
2023-04-15T11:09:32.604Z,99373.50
2023-04-15T11:10:34.780Z,99375.97
2023-04-15T11:12:09.066Z,99381.47
2023-04-15T11:13:22.111Z,99376.81
2023-04-15T11:14:24.485Z,99378.72
2023-04-15T11:15:32.750Z,99389.44
2023-04-15T11:16:43.278Z,99389.44
2023-04-15T11:17:46.482Z,99397.47
2023-04-15T11:18:56.360Z,99392.22
2023-04-15T11:20:01.621Z,99400.47
2023-04-15T11:21:07.199Z,99392.22
2023-04-15T11:22:12.835Z,99395.81
2023-04-15T11:23:18.069Z,99398.28
2023-04-15T11:24:29.132Z,99391.69
2023-04-15T11:25:35.535Z,99392.22
2023-04-15T11:26:38.360Z,99395.53
2023-04-15T11:27:40.690Z,99407.13
2023-04-15T11:28:45.344Z,99400.50
2023-04-15T11:29:47.603Z,99397.72
2023-04-15T11:30:49.906Z,99400.25
2023-04-15T11:31:52.445Z,99407.38
2023-04-15T11:32:58.602Z,99407.94
2023-04-15T11:34:02.617Z,99404.91
2023-04-15T11:35:05.152Z,99417.31
2023-04-15T11:36:08.128Z,99405.75
2023-04-15T11:37:10.659Z,99410.97
2023-04-15T11:38:14.474Z,99417.88
2023-04-15T11:39:16.960Z,99405.72
2023-04-15T11:40:30.673Z,99414.56
2023-04-15T11:41:33.027Z,99418.97
2023-04-15T11:42:48.629Z,99420.63
2023-04-15T11:43:52.791Z,99418.69
2023-04-15T11:45:11.595Z,99424.78
2023-04-15T11:46:13.927Z,99416.50
2023-04-15T11:47:23.987Z,99420.63
2023-04-15T11:48:31.357Z,99424.22
2023-04-15T11:49:40.373Z,99431.38
2023-04-15T11:50:44.021Z,99431.38
2023-04-15T11:51:46.487Z,99422.03
2023-04-15T11:52:58.816Z,99420.06
2023-04-15T11:54:01.400Z,99424.22
2023-04-15T11:55:04.526Z,99424.22
2023-04-15T11:56:08.990Z,99425.03
2023-04-15T11:57:11.235Z,99421.47
2023-04-15T11:58:17.261Z,99418.97
2023-04-15T11:59:19.527Z,99424.22
2023-04-15T12:00:21.955Z,99428.34
2023-04-15T12:01:40.077Z,99427.25
2023-04-15T12:02:42.479Z,99426.41
2023-04-15T12:03:50.225Z,99428.06
2023-04-15T12:05:04.271Z,99430.53
2023-04-15T12:06:26.056Z,99431.69
2023-04-15T12:07:29.028Z,99440.75
2023-04-15T12:08:53.203Z,99433.03
2023-04-15T12:09:56.965Z,99433.88
2023-04-15T12:10:59.832Z,99444.03
2023-04-15T12:12:03.429Z,99436.63
2023-04-15T12:13:07.629Z,99433.88
2023-04-15T12:14:11.733Z,99449.56
2023-04-15T12:15:14.237Z,99450.41
2023-04-15T12:16:20.169Z,99449.31
2023-04-15T12:17:24.174Z,99450.13
2023-04-15T12:18:26.520Z,99455.63
2023-04-15T12:19:35.404Z,99453.44
2023-04-15T12:20:45.442Z,99452.31
2023-04-15T12:21:48.962Z,99460.34
2023-04-15T12:22:51.259Z,99463.91
2023-04-15T12:23:58.371Z,99467.47
2023-04-15T12:25:02.915Z,99467.47
2023-04-15T12:26:07.258Z,99468.84
2023-04-15T12:27:15.498Z,99470.53
2023-04-15T12:28:18.775Z,99471.91
2023-04-15T12:29:28.219Z,99471.91
2023-04-15T12:30:30.574Z,99472.19
2023-04-15T12:31:33.558Z,99472.75
2023-04-15T12:32:36.634Z,99476.31
2023-04-15T12:33:40.106Z,99480.16
2023-04-15T12:34:45.301Z,99473.56
2023-04-15T12:35:49.000Z,99473.28
2023-04-15T12:36:51.232Z,99465.84
2023-04-15T12:37:53.490Z,99471.09